Aviation Digital Data Service (ADDS)

Output produced by METARs form (1936 UTC 31 January 2023)
found at http://www.aviationweather.gov/metar/data/
 
KCSG 311851Z 23005KT 7SM OVC004 17/17 A3015 RMK AO2 SLP207 T01720167
KCSG 311739Z 3118/0118 26005KT P6SM OVC005 
     FM312000 28005KT P6SM BKN015 
     FM010100 VRB03KT P6SM BKN008 
     FM010500 VRB03KT 1/2SM FG VCSH OVC004 
     FM011600 32004KT 4SM BR BKN008